createdAt,value
2022-12-27T00:00:57.825Z,3.27
2022-12-27T00:03:26.086Z,2.70
2022-12-27T00:05:54.260Z,3.10
2022-12-27T00:08:22.444Z,4.07
2022-12-27T00:10:50.654Z,2.90
2022-12-27T00:13:18.827Z,2.20
2022-12-27T00:15:48.398Z,2.90
2022-12-27T00:18:16.657Z,3.27
2022-12-27T00:20:44.914Z,2.43
2022-12-27T00:23:13.076Z,3.50
2022-12-27T00:25:41.318Z,4.70
2022-12-27T00:28:09.568Z,2.50
2022-12-27T00:30:37.765Z,2.50
2022-12-27T00:33:07.459Z,2.93
2022-12-27T00:35:35.719Z,2.10
2022-12-27T00:38:04.024Z,2.17
2022-12-27T00:40:32.485Z,2.80
2022-12-27T00:43:00.756Z,3.37
2022-12-27T00:45:29.045Z,3.30
2022-12-27T00:47:57.300Z,1.80
2022-12-27T00:50:27.549Z,2.43
2022-12-27T00:52:55.749Z,3.83
2022-12-27T00:55:24.121Z,3.67
2022-12-27T00:57:52.327Z,2.70
2022-12-27T01:00:20.665Z,2.40
2022-12-27T01:02:48.952Z,2.73
2022-12-27T01:05:17.394Z,4.53
2022-12-27T01:07:47.449Z,3.10
2022-12-27T01:10:15.852Z,3.50
2022-12-27T01:12:44.300Z,3.40
2022-12-27T01:15:13.009Z,2.63
2022-12-27T01:17:41.288Z,2.40
2022-12-27T01:20:10.183Z,2.10
2022-12-27T01:22:38.429Z,2.50
2022-12-27T01:25:08.738Z,3.00
2022-12-27T01:27:36.970Z,2.57
2022-12-27T01:30:05.347Z,2.83
2022-12-27T01:32:34.434Z,3.73
2022-12-27T01:35:02.713Z,3.00
2022-12-27T01:37:31.091Z,3.10
2022-12-27T01:39:59.342Z,1.87
2022-12-27T01:42:46.834Z,2.93
2022-12-27T01:45:16.383Z,2.67
2022-12-27T01:48:02.500Z,3.03
2022-12-27T01:50:32.730Z,2.93
2022-12-27T01:53:04.370Z,2.27
2022-12-27T01:55:34.885Z,3.20
2022-12-27T01:58:06.844Z,2.47
2022-12-27T02:00:35.380Z,2.40
2022-12-27T02:03:04.888Z,2.40
2022-12-27T02:05:33.599Z,2.97
2022-12-27T02:08:18.428Z,2.80
2022-12-27T02:10:47.691Z,2.70
2022-12-27T02:13:17.856Z,2.63
2022-12-27T02:15:46.151Z,2.40
2022-12-27T02:18:14.508Z,2.40
2022-12-27T02:20:52.560Z,2.60
2022-12-27T02:23:53.099Z,4.00
2022-12-27T02:26:36.328Z,2.80
2022-12-27T02:29:10.413Z,2.20
2022-12-27T02:31:42.540Z,2.80
2022-12-27T02:34:15.052Z,3.00
2022-12-27T02:36:43.871Z,3.47
2022-12-27T02:39:12.936Z,3.10
2022-12-27T02:41:59.201Z,2.30
2022-12-27T02:44:46.540Z,3.00
2022-12-27T02:47:36.837Z,2.63
2022-12-27T02:50:23.527Z,3.03
2022-12-27T02:53:05.114Z,2.60
2022-12-27T02:55:37.824Z,3.40
2022-12-27T02:58:14.542Z,4.10
2022-12-27T03:01:04.539Z,3.23
2022-12-27T03:03:44.259Z,2.50
2022-12-27T03:06:38.303Z,3.37
2022-12-27T03:09:10.765Z,3.70
2022-12-27T03:12:01.372Z,3.10
2022-12-27T03:14:51.041Z,3.90
2022-12-27T03:17:23.389Z,3.03
2022-12-27T03:20:13.074Z,4.77
2022-12-27T03:23:00.525Z,2.90
2022-12-27T03:25:30.170Z,4.03
2022-12-27T03:28:17.286Z,3.97
2022-12-27T03:31:00.970Z,3.50
2022-12-27T03:33:33.002Z,3.03
2022-12-27T03:36:22.521Z,5.37
2022-12-27T03:38:54.699Z,2.90
2022-12-27T03:41:42.653Z,3.40
2022-12-27T03:44:25.001Z,2.90
2022-12-27T03:46:55.059Z,3.27
2022-12-27T03:49:26.593Z,3.30
2022-12-27T03:51:57.505Z,2.80
2022-12-27T03:54:27.807Z,3.10
2022-12-27T03:56:57.213Z,3.47
2022-12-27T03:59:25.697Z,3.90
2022-12-27T04:01:54.110Z,3.60
2022-12-27T04:04:22.449Z,2.43
2022-12-27T04:06:51.971Z,3.17
2022-12-27T04:09:38.003Z,2.70
2022-12-27T04:12:23.993Z,3.00
2022-12-27T04:15:10.067Z,3.00
2022-12-27T04:17:56.064Z,3.20
2022-12-27T04:20:42.070Z,3.60
2022-12-27T04:23:29.337Z,3.13
2022-12-27T04:26:15.298Z,2.50
2022-12-27T04:29:01.342Z,3.80
2022-12-27T04:31:47.181Z,2.77
2022-12-27T04:34:33.282Z,3.70
2022-12-27T04:37:01.535Z,3.20
2022-12-27T04:39:31.158Z,2.80
2022-12-27T04:42:17.011Z,4.50
2022-12-27T04:45:02.981Z,4.07
2022-12-27T04:47:49.515Z,3.80
2022-12-27T04:50:40.233Z,2.43
2022-12-27T04:53:28.878Z,4.37
2022-12-27T04:55:58.472Z,3.67
2022-12-27T04:58:29.656Z,3.13
2022-12-27T05:01:16.703Z,3.13
2022-12-27T05:03:45.755Z,3.30
2022-12-27T05:06:14.463Z,2.60
2022-12-27T05:09:00.632Z,3.20
2022-12-27T05:11:48.044Z,3.73
2022-12-27T05:14:16.865Z,3.30
2022-12-27T05:16:46.108Z,3.10
2022-12-27T05:19:15.528Z,3.40
2022-12-27T05:22:04.735Z,3.23
2022-12-27T05:24:50.787Z,3.17
2022-12-27T05:27:20.409Z,2.80
2022-12-27T05:29:48.766Z,2.83
2022-12-27T05:32:17.026Z,3.60
2022-12-27T05:34:45.277Z,3.80
2022-12-27T05:37:13.545Z,2.83
2022-12-27T05:39:41.926Z,3.37
2022-12-27T05:42:10.160Z,3.23
2022-12-27T05:44:39.774Z,3.13
2022-12-27T05:47:08.028Z,3.30
2022-12-27T05:49:36.276Z,3.47
2022-12-27T05:52:04.559Z,2.67
2022-12-27T05:54:32.766Z,3.27
2022-12-27T05:57:00.935Z,2.90
2022-12-27T05:59:29.207Z,2.60
2022-12-27T06:01:59.272Z,2.10
2022-12-27T06:04:27.582Z,4.57
2022-12-27T06:06:55.780Z,2.43
2022-12-27T06:09:24.116Z,4.17
2022-12-27T06:11:52.299Z,3.20
2022-12-27T06:14:20.575Z,2.80
2022-12-27T06:16:48.963Z,2.50
2022-12-27T06:19:18.613Z,2.80
2022-12-27T06:21:46.958Z,2.83
2022-12-27T06:24:15.191Z,2.57
2022-12-27T06:26:43.482Z,3.10
2022-12-27T06:29:13.166Z,2.27
2022-12-27T06:31:41.478Z,3.37
2022-12-27T06:34:11.873Z,3.40
2022-12-27T06:36:41.388Z,3.07
2022-12-27T06:39:09.570Z,3.80
2022-12-27T06:41:37.901Z,2.53
2022-12-27T06:44:06.335Z,4.07
2022-12-27T06:46:34.598Z,3.03
2022-12-27T06:49:02.916Z,3.30
2022-12-27T06:51:31.374Z,2.87
2022-12-27T06:54:00.987Z,4.33
2022-12-27T06:56:29.230Z,2.73
2022-12-27T06:58:57.540Z,3.37
2022-12-27T07:01:27.084Z,2.87
2022-12-27T07:03:56.311Z,3.10
2022-12-27T07:06:25.846Z,3.50
2022-12-27T07:08:54.760Z,3.30
2022-12-27T07:11:24.735Z,3.23
2022-12-27T07:13:53.790Z,3.20
2022-12-27T07:16:23.028Z,3.77
2022-12-27T07:18:51.832Z,2.20
2022-12-27T07:21:20.967Z,2.70
2022-12-27T07:23:49.223Z,2.70
2022-12-27T07:26:18.558Z,3.50
2022-12-27T07:28:48.341Z,3.53
2022-12-27T07:31:17.370Z,3.00
2022-12-27T07:33:46.189Z,3.03
2022-12-27T07:36:15.927Z,3.17
2022-12-27T07:38:44.278Z,3.33
2022-12-27T07:41:13.363Z,3.40
2022-12-27T07:43:43.320Z,3.17
2022-12-27T07:46:14.337Z,4.00
2022-12-27T07:48:42.927Z,3.83
2022-12-27T07:51:11.777Z,2.80
2022-12-27T07:53:40.064Z,3.47
2022-12-27T07:56:09.329Z,3.33
2022-12-27T07:58:38.531Z,4.07
2022-12-27T08:01:07.275Z,4.10
2022-12-27T08:03:37.180Z,3.20
2022-12-27T08:06:06.190Z,3.37
2022-12-27T08:08:38.703Z,3.93
2022-12-27T08:11:07.421Z,3.73
2022-12-27T08:13:35.784Z,3.73
2022-12-27T08:16:04.165Z,2.90
2022-12-27T08:18:32.364Z,3.70
2022-12-27T08:21:02.168Z,4.70
2022-12-27T08:23:30.398Z,2.70
2022-12-27T08:25:58.640Z,3.33
2022-12-27T08:28:28.139Z,3.90
2022-12-27T08:30:56.387Z,3.47
2022-12-27T08:33:24.654Z,4.53
2022-12-27T08:35:54.382Z,4.47
2022-12-27T08:38:24.476Z,3.70
2022-12-27T08:40:52.864Z,4.57
2022-12-27T08:43:21.473Z,4.33
2022-12-27T08:45:49.763Z,4.40
2022-12-27T08:48:18.115Z,4.50
2022-12-27T08:50:46.349Z,3.00
2022-12-27T08:53:14.550Z,4.13
2022-12-27T08:55:44.143Z,4.20
2022-12-27T08:58:16.316Z,4.20
2022-12-27T09:00:45.140Z,3.67
2022-12-27T09:03:13.382Z,4.03
2022-12-27T09:05:42.288Z,4.73
2022-12-27T09:08:10.934Z,4.63
2022-12-27T09:10:39.231Z,3.60
2022-12-27T09:13:08.787Z,4.90
2022-12-27T09:15:37.075Z,4.20
2022-12-27T09:18:05.523Z,5.60
2022-12-27T09:20:33.768Z,3.97
2022-12-27T09:23:02.016Z,4.30
2022-12-27T09:25:30.301Z,4.00
2022-12-27T09:27:58.592Z,4.40
2022-12-27T09:30:28.928Z,3.50
2022-12-27T09:32:57.159Z,5.73
2022-12-27T09:35:25.343Z,3.50
2022-12-27T09:37:53.802Z,4.07
2022-12-27T09:40:22.759Z,5.57
2022-12-27T09:43:07.488Z,4.17
2022-12-27T09:45:47.161Z,4.60
2022-12-27T09:48:16.459Z,6.00
2022-12-27T09:50:49.471Z,3.80
2022-12-27T09:53:20.268Z,4.57
2022-12-27T09:55:50.402Z,5.07
2022-12-27T09:58:26.933Z,3.13
2022-12-27T10:00:56.708Z,4.17
2022-12-27T10:03:27.029Z,3.97
2022-12-27T10:05:57.669Z,4.07
2022-12-27T10:08:31.842Z,4.53
2022-12-27T10:11:01.747Z,4.70
2022-12-27T10:13:39.875Z,4.60
2022-12-27T10:16:15.264Z,3.70
2022-12-27T10:18:47.740Z,3.33
2022-12-27T10:21:21.258Z,4.37
2022-12-27T10:23:54.415Z,4.40
2022-12-27T10:26:23.014Z,4.40
2022-12-27T10:28:57.167Z,4.40
2022-12-27T10:31:27.424Z,4.70
2022-12-27T10:33:56.094Z,4.93
2022-12-27T10:36:25.388Z,4.03
2022-12-27T10:38:53.576Z,3.83
2022-12-27T10:41:25.901Z,4.90
2022-12-27T10:43:55.125Z,3.80
2022-12-27T10:46:30.723Z,3.43
2022-12-27T10:51:52.420Z,4.20
2022-12-27T10:54:23.306Z,3.67
2022-12-27T10:56:51.559Z,4.97
2022-12-27T10:59:20.789Z,5.13
2022-12-27T11:01:51.092Z,4.00
2022-12-27T11:04:21.958Z,3.90
2022-12-27T11:06:51.490Z,4.10
2022-12-27T11:09:21.662Z,4.70
2022-12-27T11:11:49.897Z,4.43
2022-12-27T11:14:19.243Z,5.00
2022-12-27T11:16:47.678Z,4.50
2022-12-27T11:19:24.535Z,4.57
2022-12-27T11:21:53.987Z,5.17
2022-12-27T11:24:23.258Z,4.20
2022-12-27T11:26:54.152Z,3.33
2022-12-27T11:29:25.314Z,4.20
2022-12-27T11:31:53.910Z,4.53
2022-12-27T11:34:27.390Z,3.70
2022-12-27T11:36:56.814Z,4.53
2022-12-27T11:39:42.008Z,3.57
2022-12-27T11:42:15.566Z,4.20
2022-12-27T11:44:45.689Z,4.00
2022-12-27T11:47:16.425Z,4.20
2022-12-27T11:49:52.591Z,3.63
2022-12-27T11:52:29.498Z,3.60
2022-12-27T11:55:06.243Z,3.77
2022-12-27T11:57:40.752Z,3.30
2022-12-27T12:00:15.892Z,4.50
2022-12-27T12:02:54.848Z,3.70
2022-12-27T12:05:45.637Z,4.80
2022-12-27T12:08:28.883Z,4.00
2022-12-27T12:11:02.582Z,4.47
2022-12-27T12:13:46.749Z,3.10
2022-12-27T12:16:25.438Z,2.10
2022-12-27T12:19:08.865Z,3.00
2022-12-27T12:21:42.653Z,2.47
2022-12-27T12:24:26.576Z,2.67
2022-12-27T12:27:00.110Z,2.63
2022-12-27T12:29:35.120Z,4.10
2022-12-27T12:32:26.935Z,3.00
2022-12-27T12:35:09.140Z,3.50
2022-12-27T12:37:54.867Z,2.67
2022-12-27T12:40:29.439Z,2.70
2022-12-27T12:43:03.181Z,2.63
2022-12-27T12:45:41.276Z,2.50
2022-12-27T12:48:17.281Z,2.87
2022-12-27T12:50:52.962Z,2.40
2022-12-27T12:53:28.764Z,1.77
2022-12-27T12:56:04.515Z,1.53
2022-12-27T12:58:39.268Z,2.43
2022-12-27T13:01:17.604Z,2.83
2022-12-27T13:04:03.443Z,2.47
2022-12-27T13:06:52.397Z,1.60
2022-12-27T13:09:28.093Z,2.13
2022-12-27T13:12:00.482Z,2.23
2022-12-27T13:14:33.592Z,1.80
2022-12-27T13:17:04.525Z,1.70
2022-12-27T13:19:43.196Z,2.40
2022-12-27T13:22:17.372Z,3.17
2022-12-27T13:24:55.144Z,1.90
2022-12-27T13:27:28.207Z,2.60
2022-12-27T13:30:06.650Z,3.17
2022-12-27T13:32:43.125Z,2.63
2022-12-27T13:35:22.731Z,1.60
2022-12-27T13:37:54.261Z,1.90
2022-12-27T13:40:43.017Z,2.77
2022-12-27T13:43:20.243Z,2.20
2022-12-27T13:45:57.770Z,2.07
2022-12-27T13:48:39.531Z,2.73
2022-12-27T13:51:10.667Z,2.00
2022-12-27T13:54:01.908Z,2.10
2022-12-27T13:56:54.022Z,2.50
2022-12-27T13:59:46.432Z,2.00
2022-12-27T14:02:31.454Z,2.00
2022-12-27T14:05:20.331Z,2.20
2022-12-27T14:07:56.694Z,2.00
2022-12-27T14:10:32.763Z,2.13
2022-12-27T14:13:03.704Z,1.90
2022-12-27T14:15:38.989Z,2.07
2022-12-27T14:18:18.845Z,2.00
2022-12-27T14:21:01.986Z,1.83
2022-12-27T14:23:41.774Z,1.97
2022-12-27T14:26:31.098Z,1.90
2022-12-27T14:29:17.039Z,2.30
2022-12-27T14:31:55.720Z,3.40
2022-12-27T14:34:41.235Z,3.03
2022-12-27T14:37:24.405Z,2.17
2022-12-27T14:40:03.516Z,2.00
2022-12-27T14:42:50.235Z,2.13
2022-12-27T14:45:57.384Z,2.00
2022-12-27T14:48:32.822Z,2.33
2022-12-27T14:51:58.284Z,2.80
2022-12-27T14:54:38.652Z,2.40
2022-12-27T14:57:14.839Z,1.83
2022-12-27T14:59:46.657Z,2.67
2022-12-27T15:02:28.132Z,1.83
2022-12-27T15:05:04.747Z,2.37
2022-12-27T15:07:39.070Z,1.93
2022-12-27T15:10:12.651Z,2.27
2022-12-27T15:12:44.622Z,2.27
2022-12-27T15:15:18.569Z,2.50
2022-12-27T15:18:03.321Z,2.57
2022-12-27T15:20:43.785Z,1.83
2022-12-27T15:23:18.696Z,3.20
2022-12-27T15:25:57.971Z,2.10
2022-12-27T15:28:33.425Z,2.70
2022-12-27T15:31:05.531Z,3.67
2022-12-27T15:33:39.158Z,2.47
2022-12-27T15:36:11.575Z,2.73
2022-12-27T15:38:41.594Z,2.30
2022-12-27T15:41:24.721Z,2.77
2022-12-27T15:43:59.466Z,2.13
2022-12-27T15:46:57.817Z,2.03
2022-12-27T15:49:40.913Z,2.20
2022-12-27T15:52:13.473Z,3.07
2022-12-27T15:55:02.490Z,2.30
2022-12-27T15:57:37.571Z,2.57
2022-12-27T16:00:16.297Z,2.27
2022-12-27T16:02:55.721Z,3.70
2022-12-27T16:05:42.568Z,1.90
2022-12-27T16:08:26.197Z,2.30
2022-12-27T16:10:55.037Z,3.00
2022-12-27T16:13:27.456Z,2.10
2022-12-27T16:15:56.503Z,2.30
2022-12-27T16:18:40.536Z,2.00
2022-12-27T16:21:11.255Z,2.67
2022-12-27T16:23:43.062Z,2.47
2022-12-27T16:26:19.605Z,2.03
2022-12-27T16:28:53.701Z,2.30
2022-12-27T16:31:23.591Z,3.80
2022-12-27T16:33:52.694Z,1.80
2022-12-27T16:36:23.255Z,2.83
2022-12-27T16:38:58.783Z,3.03
2022-12-27T16:41:35.395Z,2.00
2022-12-27T16:44:13.721Z,3.40
2022-12-27T16:46:59.610Z,3.63
2022-12-27T16:49:46.030Z,2.30
2022-12-27T16:52:27.679Z,2.47
2022-12-27T16:55:04.251Z,2.47
2022-12-27T16:57:35.477Z,2.10
2022-12-27T17:00:06.590Z,2.90
2022-12-27T17:02:40.637Z,2.20
2022-12-27T17:05:28.002Z,2.20
2022-12-27T17:08:20.384Z,2.40
2022-12-27T17:11:01.010Z,2.10
2022-12-27T17:13:36.425Z,2.10
2022-12-27T17:16:07.838Z,3.20
2022-12-27T17:18:38.063Z,3.80
2022-12-27T17:21:08.306Z,2.47
2022-12-27T17:23:40.463Z,2.73
2022-12-27T17:26:18.582Z,2.50
2022-12-27T17:28:50.791Z,2.70
2022-12-27T17:31:23.675Z,1.63
2022-12-27T17:33:57.875Z,2.13
2022-12-27T17:36:32.143Z,1.83
2022-12-27T17:39:08.406Z,2.30
2022-12-27T17:41:59.884Z,2.80
2022-12-27T17:44:40.584Z,2.43
2022-12-27T17:47:23.627Z,3.20
2022-12-27T17:49:52.282Z,2.77
2022-12-27T17:52:39.219Z,2.17
2022-12-27T17:55:33.403Z,2.87
2022-12-27T17:58:04.236Z,2.40
2022-12-27T18:00:34.404Z,3.30
2022-12-27T18:03:04.305Z,2.63
2022-12-27T18:05:33.790Z,3.10
2022-12-27T18:08:03.267Z,2.90
2022-12-27T18:10:33.023Z,3.57
2022-12-27T18:13:04.949Z,3.13
2022-12-27T18:15:34.646Z,2.70
2022-12-27T18:18:03.518Z,2.77
2022-12-27T18:20:33.505Z,2.80
2022-12-27T18:23:18.258Z,2.30
2022-12-27T18:26:12.807Z,1.80
2022-12-27T18:28:43.726Z,2.90
2022-12-27T18:31:15.344Z,2.53
2022-12-27T18:33:44.728Z,2.47
2022-12-27T18:36:14.493Z,2.63
2022-12-27T18:38:44.275Z,2.43
2022-12-27T18:41:14.283Z,2.70
2022-12-27T18:43:48.308Z,3.10
2022-12-27T18:46:18.335Z,2.57
2022-12-27T18:48:46.682Z,3.90
2022-12-27T18:51:15.043Z,2.47
2022-12-27T18:53:45.609Z,3.03
2022-12-27T18:56:25.648Z,1.73
2022-12-27T18:59:02.342Z,2.63
2022-12-27T19:01:32.558Z,2.20
2022-12-27T19:04:17.125Z,2.80
2022-12-27T19:06:51.660Z,2.10
2022-12-27T19:09:20.954Z,2.07
2022-12-27T19:11:52.651Z,2.30
2022-12-27T19:14:22.723Z,2.63
2022-12-27T19:16:52.989Z,2.33
2022-12-27T19:19:23.875Z,2.67
2022-12-27T19:21:52.167Z,2.73
2022-12-27T19:24:21.897Z,2.80
2022-12-27T19:26:50.213Z,4.27
2022-12-27T19:29:19.755Z,2.80
2022-12-27T19:31:56.670Z,2.33
2022-12-27T19:34:26.195Z,2.20
2022-12-27T19:36:55.046Z,2.73
2022-12-27T19:39:24.427Z,2.47
2022-12-27T19:41:53.227Z,2.87
2022-12-27T19:44:29.820Z,2.10
2022-12-27T19:46:59.413Z,2.63
2022-12-27T19:49:44.420Z,2.77
2022-12-27T19:52:15.136Z,3.27
2022-12-27T19:54:43.401Z,2.77
2022-12-27T19:57:12.873Z,2.50
2022-12-27T19:59:41.089Z,3.30
2022-12-27T20:02:11.555Z,3.40
2022-12-27T20:04:40.135Z,2.63
2022-12-27T20:07:08.447Z,2.20
2022-12-27T20:09:36.810Z,3.17
2022-12-27T20:12:05.332Z,2.53
2022-12-27T20:14:33.597Z,2.33
2022-12-27T20:17:01.883Z,1.90
2022-12-27T20:19:31.520Z,2.20
2022-12-27T20:22:02.001Z,2.23
2022-12-27T20:24:31.518Z,2.30
2022-12-27T20:26:59.739Z,2.37
2022-12-27T20:29:30.202Z,2.33
2022-12-27T20:31:58.867Z,2.40
2022-12-27T20:34:27.118Z,2.80
2022-12-27T20:36:58.239Z,2.20
2022-12-27T20:39:26.422Z,2.80
2022-12-27T20:41:56.131Z,2.77
2022-12-27T20:44:24.411Z,2.60
2022-12-27T20:46:52.671Z,2.17
2022-12-27T20:49:21.226Z,2.63
2022-12-27T20:51:49.556Z,3.03
2022-12-27T20:54:19.304Z,2.43
2022-12-27T20:56:47.563Z,2.43
2022-12-27T20:59:15.761Z,2.50
2022-12-27T21:01:44.219Z,1.57
2022-12-27T21:04:12.523Z,2.00
2022-12-27T21:06:40.779Z,2.03
2022-12-27T21:09:09.398Z,2.07
2022-12-27T21:11:39.011Z,2.00
2022-12-27T21:14:07.563Z,2.70
2022-12-27T21:16:38.564Z,3.20
2022-12-27T21:19:07.253Z,2.20
2022-12-27T21:21:36.484Z,2.17
2022-12-27T21:24:05.375Z,1.90
2022-12-27T21:26:35.339Z,2.20
2022-12-27T21:29:06.217Z,1.80
2022-12-27T21:31:34.668Z,2.63
2022-12-27T21:34:02.922Z,2.30
2022-12-27T21:36:32.014Z,2.63
2022-12-27T21:39:01.759Z,2.10
2022-12-27T21:41:30.840Z,2.90
2022-12-27T21:43:59.118Z,1.83
2022-12-27T21:46:29.896Z,2.10
2022-12-27T21:48:58.816Z,1.80
2022-12-27T21:51:27.760Z,1.47
2022-12-27T21:53:56.344Z,2.07
2022-12-27T21:56:24.882Z,1.97
2022-12-27T21:58:55.304Z,2.23
2022-12-27T22:01:24.184Z,2.63
2022-12-27T22:03:54.583Z,2.70
2022-12-27T22:06:26.957Z,1.87
2022-12-27T22:08:55.850Z,2.47
2022-12-27T22:11:24.709Z,2.50
2022-12-27T22:13:52.987Z,3.13
2022-12-27T22:16:22.137Z,2.27
2022-12-27T22:18:51.032Z,2.17
2022-12-27T22:21:21.837Z,1.67
2022-12-27T22:23:51.421Z,2.40
2022-12-27T22:26:20.551Z,1.77
2022-12-27T22:28:49.140Z,2.40
2022-12-27T22:31:18.666Z,1.73
2022-12-27T22:33:47.491Z,2.40
2022-12-27T22:36:16.586Z,2.40
2022-12-27T22:38:49.665Z,2.10
2022-12-27T22:41:19.360Z,2.10
2022-12-27T22:43:50.606Z,2.27
2022-12-27T22:46:19.191Z,1.53
2022-12-27T22:48:50.590Z,2.00
2022-12-27T22:51:19.551Z,2.37
2022-12-27T22:53:49.256Z,1.60
2022-12-27T22:56:18.898Z,1.93
2022-12-27T22:58:47.657Z,1.57
2022-12-27T23:01:17.335Z,1.90
2022-12-27T23:03:45.742Z,1.60
2022-12-27T23:06:14.018Z,2.30
2022-12-27T23:08:42.784Z,1.80
2022-12-27T23:11:13.226Z,2.03
2022-12-27T23:13:41.534Z,1.70
2022-12-27T23:16:10.176Z,2.10
2022-12-27T23:18:39.473Z,2.10
2022-12-27T23:21:21.631Z,2.50
2022-12-27T23:23:53.093Z,2.50
2022-12-27T23:26:23.937Z,2.33
2022-12-27T23:28:53.247Z,1.83
2022-12-27T23:31:22.363Z,1.97
2022-12-27T23:33:50.639Z,2.50
2022-12-27T23:36:19.072Z,2.60
2022-12-27T23:38:47.510Z,2.50
2022-12-27T23:41:16.869Z,2.00
2022-12-27T23:43:55.282Z,2.40
2022-12-27T23:46:24.969Z,2.03
2022-12-27T23:48:53.432Z,1.87
2022-12-27T23:51:22.269Z,2.47
2022-12-27T23:53:50.799Z,2.03
2022-12-27T23:56:19.805Z,2.53
2022-12-27T23:58:49.794Z,2.67
